sensor_id;sensor_type;location;lat;lon;timestamp;temperature;humidity
65046;DHT22;54657;52.022;5.534;2022-09-24T00:01:28;15.80;76.10
65046;DHT22;54657;52.022;5.534;2022-09-24T00:03:59;15.90;75.80
65046;DHT22;54657;52.022;5.534;2022-09-24T00:06:27;15.90;75.90
65046;DHT22;54657;52.022;5.534;2022-09-24T00:08:54;15.90;75.80
65046;DHT22;54657;52.022;5.534;2022-09-24T00:11:22;15.90;75.80
65046;DHT22;54657;52.022;5.534;2022-09-24T00:13:49;15.80;75.80
65046;DHT22;54657;52.022;5.534;2022-09-24T00:16:17;15.80;75.90
65046;DHT22;54657;52.022;5.534;2022-09-24T00:18:42;15.70;76.20
65046;DHT22;54657;52.022;5.534;2022-09-24T00:21:26;15.70;76.30
65046;DHT22;54657;52.022;5.534;2022-09-24T00:23:54;15.60;76.60
65046;DHT22;54657;52.022;5.534;2022-09-24T00:26:21;15.60;76.50
65046;DHT22;54657;52.022;5.534;2022-09-24T00:29:10;15.60;76.30
65046;DHT22;54657;52.022;5.534;2022-09-24T00:31:36;15.70;76.40
65046;DHT22;54657;52.022;5.534;2022-09-24T00:34:02;15.70;76.20
65046;DHT22;54657;52.022;5.534;2022-09-24T00:36:27;15.70;76.00
65046;DHT22;54657;52.022;5.534;2022-09-24T00:38:55;15.70;76.10
65046;DHT22;54657;52.022;5.534;2022-09-24T00:41:23;15.70;76.00
65046;DHT22;54657;52.022;5.534;2022-09-24T00:43:49;15.60;76.60
65046;DHT22;54657;52.022;5.534;2022-09-24T00:49:16;15.60;77.50
65046;DHT22;54657;52.022;5.534;2022-09-24T00:51:46;15.60;76.80
65046;DHT22;54657;52.022;5.534;2022-09-24T00:54:22;15.70;76.60
65046;DHT22;54657;52.022;5.534;2022-09-24T00:56:50;15.60;76.90
65046;DHT22;54657;52.022;5.534;2022-09-24T00:59:19;15.60;76.70
65046;DHT22;54657;52.022;5.534;2022-09-24T01:01:48;15.60;76.70
65046;DHT22;54657;52.022;5.534;2022-09-24T01:04:17;15.60;76.50
65046;DHT22;54657;52.022;5.534;2022-09-24T01:06:46;15.60;76.90
65046;DHT22;54657;52.022;5.534;2022-09-24T01:09:12;15.60;77.10
65046;DHT22;54657;52.022;5.534;2022-09-24T01:11:49;15.50;76.80
65046;DHT22;54657;52.022;5.534;2022-09-24T01:15:11;15.60;77.30
65046;DHT22;54657;52.022;5.534;2022-09-24T01:20:34;15.60;77.70
65046;DHT22;54657;52.022;5.534;2022-09-24T01:31:45;15.50;78.40
65046;DHT22;54657;52.022;5.534;2022-09-24T01:34:15;15.50;77.20
65046;DHT22;54657;52.022;5.534;2022-09-24T01:36:44;15.50;77.10
65046;DHT22;54657;52.022;5.534;2022-09-24T01:39:11;15.50;77.00
65046;DHT22;54657;52.022;5.534;2022-09-24T01:41:40;15.50;77.00
65046;DHT22;54657;52.022;5.534;2022-09-24T01:44:08;15.50;76.90
65046;DHT22;54657;52.022;5.534;2022-09-24T01:46:38;15.40;77.40
65046;DHT22;54657;52.022;5.534;2022-09-24T01:49:04;15.50;77.30
65046;DHT22;54657;52.022;5.534;2022-09-24T01:51:51;15.50;77.10
65046;DHT22;54657;52.022;5.534;2022-09-24T01:54:40;15.50;78.10
65046;DHT22;54657;52.022;5.534;2022-09-24T01:57:12;15.50;78.40
65046;DHT22;54657;52.022;5.534;2022-09-24T01:59:54;15.40;77.40
65046;DHT22;54657;52.022;5.534;2022-09-24T02:02:27;15.50;77.70
65046;DHT22;54657;52.022;5.534;2022-09-24T02:05:08;15.40;77.30
65046;DHT22;54657;52.022;5.534;2022-09-24T02:10:19;15.40;78.60
65046;DHT22;54657;52.022;5.534;2022-09-24T02:12:50;15.30;77.50
65046;DHT22;54657;52.022;5.534;2022-09-24T02:15:37;15.30;77.70
65046;DHT22;54657;52.022;5.534;2022-09-24T02:18:08;15.30;79.10
65046;DHT22;54657;52.022;5.534;2022-09-24T02:20:38;15.30;77.60
65046;DHT22;54657;52.022;5.534;2022-09-24T02:23:06;15.30;77.50
65046;DHT22;54657;52.022;5.534;2022-09-24T02:25:38;15.30;77.50
65046;DHT22;54657;52.022;5.534;2022-09-24T02:28:05;15.40;77.60
65046;DHT22;54657;52.022;5.534;2022-09-24T02:30:37;15.30;77.50
65046;DHT22;54657;52.022;5.534;2022-09-24T02:33:06;15.30;77.80
65046;DHT22;54657;52.022;5.534;2022-09-24T02:35:52;15.30;77.40
65046;DHT22;54657;52.022;5.534;2022-09-24T02:38:18;15.30;77.30
65046;DHT22;54657;52.022;5.534;2022-09-24T02:40:44;15.40;77.20
65046;DHT22;54657;52.022;5.534;2022-09-24T02:43:09;15.40;77.00
65046;DHT22;54657;52.022;5.534;2022-09-24T02:45:35;15.50;77.00
65046;DHT22;54657;52.022;5.534;2022-09-24T02:48:01;15.40;76.90
65046;DHT22;54657;52.022;5.534;2022-09-24T02:50:27;15.40;77.00
65046;DHT22;54657;52.022;5.534;2022-09-24T02:52:52;15.50;77.00
65046;DHT22;54657;52.022;5.534;2022-09-24T02:55:18;15.50;77.20
65046;DHT22;54657;52.022;5.534;2022-09-24T02:57:43;15.50;77.10
65046;DHT22;54657;52.022;5.534;2022-09-24T03:00:09;15.50;77.10
65046;DHT22;54657;52.022;5.534;2022-09-24T03:02:35;15.40;77.30
65046;DHT22;54657;52.022;5.534;2022-09-24T03:05:01;15.40;77.30
65046;DHT22;54657;52.022;5.534;2022-09-24T03:07:26;15.40;77.20
65046;DHT22;54657;52.022;5.534;2022-09-24T03:09:52;15.50;77.10
65046;DHT22;54657;52.022;5.534;2022-09-24T03:12:17;15.40;77.10
65046;DHT22;54657;52.022;5.534;2022-09-24T03:14:43;15.40;77.00
65046;DHT22;54657;52.022;5.534;2022-09-24T03:17:08;15.40;77.20
65046;DHT22;54657;52.022;5.534;2022-09-24T03:19:34;15.40;77.20
65046;DHT22;54657;52.022;5.534;2022-09-24T03:21:59;15.40;77.40
65046;DHT22;54657;52.022;5.534;2022-09-24T03:24:25;15.40;77.20
65046;DHT22;54657;52.022;5.534;2022-09-24T03:26:50;15.40;77.10
65046;DHT22;54657;52.022;5.534;2022-09-24T03:29:16;15.40;77.60
65046;DHT22;54657;52.022;5.534;2022-09-24T03:32:02;15.30;77.30
65046;DHT22;54657;52.022;5.534;2022-09-24T03:34:27;15.40;77.30
65046;DHT22;54657;52.022;5.534;2022-09-24T03:36:53;15.30;77.50
65046;DHT22;54657;52.022;5.534;2022-09-24T03:39:18;15.30;77.60
65046;DHT22;54657;52.022;5.534;2022-09-24T03:41:44;15.30;77.60
65046;DHT22;54657;52.022;5.534;2022-09-24T03:44:09;15.40;77.50
65046;DHT22;54657;52.022;5.534;2022-09-24T03:46:35;15.40;77.50
65046;DHT22;54657;52.022;5.534;2022-09-24T03:49:01;15.40;77.50
65046;DHT22;54657;52.022;5.534;2022-09-24T03:51:26;15.40;77.60
65046;DHT22;54657;52.022;5.534;2022-09-24T03:53:52;15.40;78.10
65046;DHT22;54657;52.022;5.534;2022-09-24T03:56:17;15.40;77.60
65046;DHT22;54657;52.022;5.534;2022-09-24T03:58:43;15.40;77.50
65046;DHT22;54657;52.022;5.534;2022-09-24T04:01:12;15.40;77.60
65046;DHT22;54657;52.022;5.534;2022-09-24T04:03:38;15.40;77.60
65046;DHT22;54657;52.022;5.534;2022-09-24T04:06:05;15.40;77.60
65046;DHT22;54657;52.022;5.534;2022-09-24T04:08:31;15.40;77.50
65046;DHT22;54657;52.022;5.534;2022-09-24T04:10:57;15.40;77.40
65046;DHT22;54657;52.022;5.534;2022-09-24T04:13:23;15.50;77.60
65046;DHT22;54657;52.022;5.534;2022-09-24T04:15:49;15.50;77.50
65046;DHT22;54657;52.022;5.534;2022-09-24T04:18:16;15.50;77.30
65046;DHT22;54657;52.022;5.534;2022-09-24T04:20:42;15.50;77.30
65046;DHT22;54657;52.022;5.534;2022-09-24T04:23:08;15.50;77.50
65046;DHT22;54657;52.022;5.534;2022-09-24T04:25:34;15.50;78.10
65046;DHT22;54657;52.022;5.534;2022-09-24T04:28:03;15.50;77.50
65046;DHT22;54657;52.022;5.534;2022-09-24T04:30:29;15.50;77.60
65046;DHT22;54657;52.022;5.534;2022-09-24T04:32:55;15.50;77.60
65046;DHT22;54657;52.022;5.534;2022-09-24T04:35:24;15.50;77.50
65046;DHT22;54657;52.022;5.534;2022-09-24T04:37:50;15.40;77.60
65046;DHT22;54657;52.022;5.534;2022-09-24T04:40:15;15.40;77.70
65046;DHT22;54657;52.022;5.534;2022-09-24T04:42:42;15.40;77.60
65046;DHT22;54657;52.022;5.534;2022-09-24T04:45:11;15.40;77.70
65046;DHT22;54657;52.022;5.534;2022-09-24T04:47:37;15.40;78.00
65046;DHT22;54657;52.022;5.534;2022-09-24T04:50:06;15.40;77.90
65046;DHT22;54657;52.022;5.534;2022-09-24T04:52:32;15.40;77.80
65046;DHT22;54657;52.022;5.534;2022-09-24T04:55:00;15.40;77.70
65046;DHT22;54657;52.022;5.534;2022-09-24T04:57:26;15.40;77.80
65046;DHT22;54657;52.022;5.534;2022-09-24T04:59:53;15.40;77.70
65046;DHT22;54657;52.022;5.534;2022-09-24T05:02:18;15.40;77.90
65046;DHT22;54657;52.022;5.534;2022-09-24T05:04:44;15.40;77.80
65046;DHT22;54657;52.022;5.534;2022-09-24T05:07:10;15.40;78.00
65046;DHT22;54657;52.022;5.534;2022-09-24T05:09:36;15.50;77.90
65046;DHT22;54657;52.022;5.534;2022-09-24T05:12:03;15.50;77.80
65046;DHT22;54657;52.022;5.534;2022-09-24T05:14:28;15.50;77.90
65046;DHT22;54657;52.022;5.534;2022-09-24T05:16:54;15.50;77.90
65046;DHT22;54657;52.022;5.534;2022-09-24T05:19:20;15.50;77.90
65046;DHT22;54657;52.022;5.534;2022-09-24T05:21:45;15.40;78.00
65046;DHT22;54657;52.022;5.534;2022-09-24T05:24:11;15.40;78.00
65046;DHT22;54657;52.022;5.534;2022-09-24T05:26:37;15.50;78.10
65046;DHT22;54657;52.022;5.534;2022-09-24T05:29:21;15.50;78.00
65046;DHT22;54657;52.022;5.534;2022-09-24T05:31:46;15.50;78.00
65046;DHT22;54657;52.022;5.534;2022-09-24T05:34:12;15.50;77.90
65046;DHT22;54657;52.022;5.534;2022-09-24T05:36:39;15.50;77.90
65046;DHT22;54657;52.022;5.534;2022-09-24T05:39:05;15.50;77.90
65046;DHT22;54657;52.022;5.534;2022-09-24T05:41:31;15.50;77.90
65046;DHT22;54657;52.022;5.534;2022-09-24T05:43:56;15.50;78.00
65046;DHT22;54657;52.022;5.534;2022-09-24T05:46:24;15.50;78.20
65046;DHT22;54657;52.022;5.534;2022-09-24T05:48:49;15.40;78.20
65046;DHT22;54657;52.022;5.534;2022-09-24T05:51:15;15.50;78.30
65046;DHT22;54657;52.022;5.534;2022-09-24T05:53:40;15.50;78.20
65046;DHT22;54657;52.022;5.534;2022-09-24T05:56:06;15.50;78.10
65046;DHT22;54657;52.022;5.534;2022-09-24T05:58:32;15.60;78.10
65046;DHT22;54657;52.022;5.534;2022-09-24T06:00:58;15.50;78.00
65046;DHT22;54657;52.022;5.534;2022-09-24T06:03:25;15.50;78.20
65046;DHT22;54657;52.022;5.534;2022-09-24T06:05:51;15.50;78.20
65046;DHT22;54657;52.022;5.534;2022-09-24T06:08:19;15.50;78.20
65046;DHT22;54657;52.022;5.534;2022-09-24T06:10:45;15.50;78.20
65046;DHT22;54657;52.022;5.534;2022-09-24T06:13:12;15.50;78.20
65046;DHT22;54657;52.022;5.534;2022-09-24T06:15:41;15.50;78.40
65046;DHT22;54657;52.022;5.534;2022-09-24T06:18:07;15.50;78.20
65046;DHT22;54657;52.022;5.534;2022-09-24T06:20:33;15.50;78.20
65046;DHT22;54657;52.022;5.534;2022-09-24T06:22:59;15.60;78.20
65046;DHT22;54657;52.022;5.534;2022-09-24T06:25:25;15.50;78.60
65046;DHT22;54657;52.022;5.534;2022-09-24T06:27:55;15.50;78.50
65046;DHT22;54657;52.022;5.534;2022-09-24T06:30:32;15.40;78.70
65046;DHT22;54657;52.022;5.534;2022-09-24T06:33:03;15.40;78.70
65046;DHT22;54657;52.022;5.534;2022-09-24T06:35:32;15.40;78.80
65046;DHT22;54657;52.022;5.534;2022-09-24T06:37:57;15.40;78.70
65046;DHT22;54657;52.022;5.534;2022-09-24T06:40:23;15.50;78.70
65046;DHT22;54657;52.022;5.534;2022-09-24T06:42:51;15.50;78.60
65046;DHT22;54657;52.022;5.534;2022-09-24T06:45:17;15.50;78.50
65046;DHT22;54657;52.022;5.534;2022-09-24T06:47:43;15.50;78.60
65046;DHT22;54657;52.022;5.534;2022-09-24T06:50:10;15.50;78.60
65046;DHT22;54657;52.022;5.534;2022-09-24T06:52:35;15.50;78.60
65046;DHT22;54657;52.022;5.534;2022-09-24T06:55:01;15.60;78.60
65046;DHT22;54657;52.022;5.534;2022-09-24T06:57:26;15.60;78.40
65046;DHT22;54657;52.022;5.534;2022-09-24T06:59:52;15.60;78.40
65046;DHT22;54657;52.022;5.534;2022-09-24T07:02:17;15.60;78.40
65046;DHT22;54657;52.022;5.534;2022-09-24T07:04:43;15.70;78.50
65046;DHT22;54657;52.022;5.534;2022-09-24T07:07:09;15.60;78.70
65046;DHT22;54657;52.022;5.534;2022-09-24T07:09:53;15.60;78.50
65046;DHT22;54657;52.022;5.534;2022-09-24T07:12:18;15.70;78.60
65046;DHT22;54657;52.022;5.534;2022-09-24T07:14:44;15.70;78.60
65046;DHT22;54657;52.022;5.534;2022-09-24T07:17:09;15.70;78.60
65046;DHT22;54657;52.022;5.534;2022-09-24T07:19:35;15.70;78.60
65046;DHT22;54657;52.022;5.534;2022-09-24T07:22:01;15.70;78.60
65046;DHT22;54657;52.022;5.534;2022-09-24T07:24:26;15.60;78.80
65046;DHT22;54657;52.022;5.534;2022-09-24T07:26:52;15.60;79.50
65046;DHT22;54657;52.022;5.534;2022-09-24T07:29:17;15.60;78.90
65046;DHT22;54657;52.022;5.534;2022-09-24T07:31:43;15.60;78.90
65046;DHT22;54657;52.022;5.534;2022-09-24T07:34:08;15.60;79.10
65046;DHT22;54657;52.022;5.534;2022-09-24T07:36:34;15.70;79.10
65046;DHT22;54657;52.022;5.534;2022-09-24T07:39:00;15.70;79.00
65046;DHT22;54657;52.022;5.534;2022-09-24T07:41:25;15.70;78.90
65046;DHT22;54657;52.022;5.534;2022-09-24T07:43:52;15.70;78.90
65046;DHT22;54657;52.022;5.534;2022-09-24T07:46:20;15.80;78.80
65046;DHT22;54657;52.022;5.534;2022-09-24T07:48:45;15.70;78.80
65046;DHT22;54657;52.022;5.534;2022-09-24T07:51:13;15.80;78.80
65046;DHT22;54657;52.022;5.534;2022-09-24T07:53:39;15.80;78.70
65046;DHT22;54657;52.022;5.534;2022-09-24T07:56:05;15.80;78.80
65046;DHT22;54657;52.022;5.534;2022-09-24T07:58:30;15.80;78.70
65046;DHT22;54657;52.022;5.534;2022-09-24T08:00:57;15.90;78.80
65046;DHT22;54657;52.022;5.534;2022-09-24T08:03:23;15.90;78.70
65046;DHT22;54657;52.022;5.534;2022-09-24T08:05:49;15.90;78.80
65046;DHT22;54657;52.022;5.534;2022-09-24T08:08:14;15.90;78.80
65046;DHT22;54657;52.022;5.534;2022-09-24T08:10:40;15.90;78.70
65046;DHT22;54657;52.022;5.534;2022-09-24T08:13:06;15.90;78.90
65046;DHT22;54657;52.022;5.534;2022-09-24T08:15:33;15.90;79.00
65046;DHT22;54657;52.022;5.534;2022-09-24T08:18:00;15.90;79.00
65046;DHT22;54657;52.022;5.534;2022-09-24T08:20:27;15.90;79.00
65046;DHT22;54657;52.022;5.534;2022-09-24T08:22:53;15.80;79.00
65046;DHT22;54657;52.022;5.534;2022-09-24T08:25:19;15.90;79.00
65046;DHT22;54657;52.022;5.534;2022-09-24T08:27:45;15.90;79.10
65046;DHT22;54657;52.022;5.534;2022-09-24T08:30:15;15.80;79.20
65046;DHT22;54657;52.022;5.534;2022-09-24T08:32:45;15.90;79.10
65046;DHT22;54657;52.022;5.534;2022-09-24T08:35:12;15.90;79.20
65046;DHT22;54657;52.022;5.534;2022-09-24T08:37:40;15.90;79.10
65046;DHT22;54657;52.022;5.534;2022-09-24T08:40:06;15.90;79.10
65046;DHT22;54657;52.022;5.534;2022-09-24T08:42:44;16.00;79.20
65046;DHT22;54657;52.022;5.534;2022-09-24T08:45:13;16.00;79.20
65046;DHT22;54657;52.022;5.534;2022-09-24T08:48:13;15.90;79.20
65046;DHT22;54657;52.022;5.534;2022-09-24T08:50:50;16.00;79.60
65046;DHT22;54657;52.022;5.534;2022-09-24T08:53:24;15.90;79.50
65046;DHT22;54657;52.022;5.534;2022-09-24T08:55:59;15.90;79.40
65046;DHT22;54657;52.022;5.534;2022-09-24T08:58:27;16.00;79.60
65046;DHT22;54657;52.022;5.534;2022-09-24T09:04:00;16.00;79.30
65046;DHT22;54657;52.022;5.534;2022-09-24T09:09:13;16.00;79.30
65046;DHT22;54657;52.022;5.534;2022-09-24T09:11:46;16.00;79.60
65046;DHT22;54657;52.022;5.534;2022-09-24T09:14:53;16.00;79.40
65046;DHT22;54657;52.022;5.534;2022-09-24T09:19:54;16.00;79.70
65046;DHT22;54657;52.022;5.534;2022-09-24T09:22:24;16.10;79.70
65046;DHT22;54657;52.022;5.534;2022-09-24T09:24:52;16.10;79.50
65046;DHT22;54657;52.022;5.534;2022-09-24T09:27:19;16.10;79.50
65046;DHT22;54657;52.022;5.534;2022-09-24T09:29:51;16.10;79.50
65046;DHT22;54657;52.022;5.534;2022-09-24T09:32:48;16.10;79.60
65046;DHT22;54657;52.022;5.534;2022-09-24T09:35:11;16.10;79.70
65046;DHT22;54657;52.022;5.534;2022-09-24T09:37:54;16.10;79.60
65046;DHT22;54657;52.022;5.534;2022-09-24T09:40:30;16.10;79.90
65046;DHT22;54657;52.022;5.534;2022-09-24T09:42:59;16.00;79.70
65046;DHT22;54657;52.022;5.534;2022-09-24T09:48:14;16.00;79.80
65046;DHT22;54657;52.022;5.534;2022-09-24T09:50:48;16.10;79.70
65046;DHT22;54657;52.022;5.534;2022-09-24T09:53:22;16.10;79.60
65046;DHT22;54657;52.022;5.534;2022-09-24T09:58:25;16.10;79.80
65046;DHT22;54657;52.022;5.534;2022-09-24T10:00:52;16.10;80.50
65046;DHT22;54657;52.022;5.534;2022-09-24T10:03:27;16.10;79.80
65046;DHT22;54657;52.022;5.534;2022-09-24T10:05:55;16.10;79.70
65046;DHT22;54657;52.022;5.534;2022-09-24T10:08:23;16.10;79.60
65046;DHT22;54657;52.022;5.534;2022-09-24T10:10:59;16.10;79.80
65046;DHT22;54657;52.022;5.534;2022-09-24T10:13:26;16.20;80.00
65046;DHT22;54657;52.022;5.534;2022-09-24T10:16:01;16.20;79.60
65046;DHT22;54657;52.022;5.534;2022-09-24T10:18:41;16.20;79.60
65046;DHT22;54657;52.022;5.534;2022-09-24T10:21:34;16.20;80.00
65046;DHT22;54657;52.022;5.534;2022-09-24T10:24:00;16.20;80.00
65046;DHT22;54657;52.022;5.534;2022-09-24T10:26:38;16.20;79.80
65046;DHT22;54657;52.022;5.534;2022-09-24T10:29:05;16.20;80.10
65046;DHT22;54657;52.022;5.534;2022-09-24T10:31:55;16.20;79.90
65046;DHT22;54657;52.022;5.534;2022-09-24T10:34:24;16.20;79.90
65046;DHT22;54657;52.022;5.534;2022-09-24T10:37:00;16.20;79.90
65046;DHT22;54657;52.022;5.534;2022-09-24T10:39:26;16.30;80.00
65046;DHT22;54657;52.022;5.534;2022-09-24T10:41:54;16.30;79.80
65046;DHT22;54657;52.022;5.534;2022-09-24T10:44:28;16.30;80.30
65046;DHT22;54657;52.022;5.534;2022-09-24T10:50:02;16.40;79.90
65046;DHT22;54657;52.022;5.534;2022-09-24T10:58:01;16.40;79.60
65046;DHT22;54657;52.022;5.534;2022-09-24T11:00:51;16.30;79.90
65046;DHT22;54657;52.022;5.534;2022-09-24T11:06:11;16.40;79.90
65046;DHT22;54657;52.022;5.534;2022-09-24T11:17:22;16.50;79.60
65046;DHT22;54657;52.022;5.534;2022-09-24T11:36:56;16.20;80.30
65046;DHT22;54657;52.022;5.534;2022-09-24T11:42:27;16.20;80.60
65046;DHT22;54657;52.022;5.534;2022-09-24T11:45:16;16.20;81.40
65046;DHT22;54657;52.022;5.534;2022-09-24T11:56:00;16.10;81.20
65046;DHT22;54657;52.022;5.534;2022-09-24T11:58:35;16.10;81.10
65046;DHT22;54657;52.022;5.534;2022-09-24T12:01:09;16.10;81.00
65046;DHT22;54657;52.022;5.534;2022-09-24T12:06:29;16.10;82.00
65046;DHT22;54657;52.022;5.534;2022-09-24T12:09:08;16.10;81.30
65046;DHT22;54657;52.022;5.534;2022-09-24T12:11:45;16.00;81.40
65046;DHT22;54657;52.022;5.534;2022-09-24T12:14:18;16.00;81.40
65046;DHT22;54657;52.022;5.534;2022-09-24T12:16:48;15.90;81.60
65046;DHT22;54657;52.022;5.534;2022-09-24T12:19:27;15.80;81.70
65046;DHT22;54657;52.022;5.534;2022-09-24T12:21:56;15.80;82.10
65046;DHT22;54657;52.022;5.534;2022-09-24T12:24:59;15.80;82.10
65046;DHT22;54657;52.022;5.534;2022-09-24T12:27:36;15.80;82.20
65046;DHT22;54657;52.022;5.534;2022-09-24T12:33:51;15.70;82.70
65046;DHT22;54657;52.022;5.534;2022-09-24T12:36:25;15.70;82.20
65046;DHT22;54657;52.022;5.534;2022-09-24T12:39:01;15.60;82.70
65046;DHT22;54657;52.022;5.534;2022-09-24T12:41:32;15.70;82.30
65046;DHT22;54657;52.022;5.534;2022-09-24T12:44:05;15.70;82.40
65046;DHT22;54657;52.022;5.534;2022-09-24T12:46:39;15.80;82.10
65046;DHT22;54657;52.022;5.534;2022-09-24T12:49:30;15.70;82.30
65046;DHT22;54657;52.022;5.534;2022-09-24T12:54:31;15.80;82.30
65046;DHT22;54657;52.022;5.534;2022-09-24T12:59:30;15.80;83.00
65046;DHT22;54657;52.022;5.534;2022-09-24T13:02:12;15.80;82.20
65046;DHT22;54657;52.022;5.534;2022-09-24T13:04:43;15.80;83.20
65046;DHT22;54657;52.022;5.534;2022-09-24T13:10:24;15.90;83.50
65046;DHT22;54657;52.022;5.534;2022-09-24T13:12:50;15.90;82.50
65046;DHT22;54657;52.022;5.534;2022-09-24T13:15:32;15.80;82.40
65046;DHT22;54657;52.022;5.534;2022-09-24T13:20:37;15.90;82.60
65046;DHT22;54657;52.022;5.534;2022-09-24T13:28:48;15.70;83.10
65046;DHT22;54657;52.022;5.534;2022-09-24T13:36:36;15.70;83.50
65046;DHT22;54657;52.022;5.534;2022-09-24T13:41:39;15.60;83.20
65046;DHT22;54657;52.022;5.534;2022-09-24T13:44:26;15.70;83.30
65046;DHT22;54657;52.022;5.534;2022-09-24T13:46:58;15.70;83.50
65046;DHT22;54657;52.022;5.534;2022-09-24T13:49:25;15.80;83.30
65046;DHT22;54657;52.022;5.534;2022-09-24T13:52:27;15.70;83.60
65046;DHT22;54657;52.022;5.534;2022-09-24T13:54:56;15.60;83.00
65046;DHT22;54657;52.022;5.534;2022-09-24T13:57:27;15.60;82.80
65046;DHT22;54657;52.022;5.534;2022-09-24T14:00:21;15.60;83.00
65046;DHT22;54657;52.022;5.534;2022-09-24T14:05:40;15.70;83.70
65046;DHT22;54657;52.022;5.534;2022-09-24T14:08:12;15.70;82.60
65046;DHT22;54657;52.022;5.534;2022-09-24T14:10:38;15.70;82.70
65046;DHT22;54657;52.022;5.534;2022-09-24T14:13:17;15.70;82.60
65046;DHT22;54657;52.022;5.534;2022-09-24T14:18:46;15.80;82.50
65046;DHT22;54657;52.022;5.534;2022-09-24T14:22:12;15.80;82.70
65046;DHT22;54657;52.022;5.534;2022-09-24T14:24:22;15.80;83.20
65046;DHT22;54657;52.022;5.534;2022-09-24T14:26:54;15.90;82.60
65046;DHT22;54657;52.022;5.534;2022-09-24T14:29:44;16.00;82.60
65046;DHT22;54657;52.022;5.534;2022-09-24T14:35:32;15.90;82.90
65046;DHT22;54657;52.022;5.534;2022-09-24T14:37:39;15.90;82.50
65046;DHT22;54657;52.022;5.534;2022-09-24T14:40:14;15.90;82.70
65046;DHT22;54657;52.022;5.534;2022-09-24T14:42:55;15.90;82.90
65046;DHT22;54657;52.022;5.534;2022-09-24T14:45:28;16.00;83.70
65046;DHT22;54657;52.022;5.534;2022-09-24T14:48:28;16.00;82.80
65046;DHT22;54657;52.022;5.534;2022-09-24T14:50:54;16.00;83.30
65046;DHT22;54657;52.022;5.534;2022-09-24T14:53:31;16.00;82.80
65046;DHT22;54657;52.022;5.534;2022-09-24T14:55:58;16.10;82.80
65046;DHT22;54657;52.022;5.534;2022-09-24T15:01:02;16.10;82.80
65046;DHT22;54657;52.022;5.534;2022-09-24T15:04:04;16.00;83.30
65046;DHT22;54657;52.022;5.534;2022-09-24T15:06:34;15.90;83.50
65046;DHT22;54657;52.022;5.534;2022-09-24T15:11:33;15.90;83.50
65046;DHT22;54657;52.022;5.534;2022-09-24T15:16:42;15.80;84.20
65046;DHT22;54657;52.022;5.534;2022-09-24T15:19:20;15.70;84.10
65046;DHT22;54657;52.022;5.534;2022-09-24T15:21:48;15.70;83.60
65046;DHT22;54657;52.022;5.534;2022-09-24T15:24:15;15.50;83.70
65046;DHT22;54657;52.022;5.534;2022-09-24T15:26:43;15.40;83.60
65046;DHT22;54657;52.022;5.534;2022-09-24T15:29:18;15.40;83.80
65046;DHT22;54657;52.022;5.534;2022-09-24T15:31:45;15.20;84.10
65046;DHT22;54657;52.022;5.534;2022-09-24T15:34:11;15.10;84.10
65046;DHT22;54657;52.022;5.534;2022-09-24T15:36:37;15.10;84.20
65046;DHT22;54657;52.022;5.534;2022-09-24T15:39:03;15.10;84.20
65046;DHT22;54657;52.022;5.534;2022-09-24T15:41:28;15.20;84.30
65046;DHT22;54657;52.022;5.534;2022-09-24T15:43:58;15.20;84.10
65046;DHT22;54657;52.022;5.534;2022-09-24T15:46:24;15.30;84.10
65046;DHT22;54657;52.022;5.534;2022-09-24T15:48:50;15.30;83.80
65046;DHT22;54657;52.022;5.534;2022-09-24T15:51:18;15.40;83.60
65046;DHT22;54657;52.022;5.534;2022-09-24T15:53:45;15.40;83.40
65046;DHT22;54657;52.022;5.534;2022-09-24T15:56:11;15.40;83.40
65046;DHT22;54657;52.022;5.534;2022-09-24T15:58:36;15.40;83.40
65046;DHT22;54657;52.022;5.534;2022-09-24T16:01:03;15.40;84.10
65046;DHT22;54657;52.022;5.534;2022-09-24T16:03:30;15.40;83.60
65046;DHT22;54657;52.022;5.534;2022-09-24T16:05:57;15.40;83.30
65046;DHT22;54657;52.022;5.534;2022-09-24T16:08:24;15.40;83.60
65046;DHT22;54657;52.022;5.534;2022-09-24T16:10:50;15.40;83.50
65046;DHT22;54657;52.022;5.534;2022-09-24T16:13:17;15.40;83.30
65046;DHT22;54657;52.022;5.534;2022-09-24T16:15:42;15.40;83.30
65046;DHT22;54657;52.022;5.534;2022-09-24T16:18:11;15.40;83.20
65046;DHT22;54657;52.022;5.534;2022-09-24T16:20:38;15.40;83.20
65046;DHT22;54657;52.022;5.534;2022-09-24T16:23:05;15.30;83.40
65046;DHT22;54657;52.022;5.534;2022-09-24T16:25:31;15.30;83.30
65046;DHT22;54657;52.022;5.534;2022-09-24T16:27:57;15.40;83.10
65046;DHT22;54657;52.022;5.534;2022-09-24T16:30:23;15.30;83.10
65046;DHT22;54657;52.022;5.534;2022-09-24T16:32:49;15.30;83.10
65046;DHT22;54657;52.022;5.534;2022-09-24T16:35:15;15.30;82.90
65046;DHT22;54657;52.022;5.534;2022-09-24T16:37:40;15.30;82.90
65046;DHT22;54657;52.022;5.534;2022-09-24T16:40:06;15.30;82.80
65046;DHT22;54657;52.022;5.534;2022-09-24T16:42:33;15.30;82.80
65046;DHT22;54657;52.022;5.534;2022-09-24T16:44:58;15.20;82.70
65046;DHT22;54657;52.022;5.534;2022-09-24T16:47:24;15.20;82.80
65046;DHT22;54657;52.022;5.534;2022-09-24T16:49:50;15.20;83.00
65046;DHT22;54657;52.022;5.534;2022-09-24T16:52:15;15.20;82.90
65046;DHT22;54657;52.022;5.534;2022-09-24T16:54:41;15.10;83.00
65046;DHT22;54657;52.022;5.534;2022-09-24T16:57:07;15.10;83.10
65046;DHT22;54657;52.022;5.534;2022-09-24T16:59:33;15.10;83.30
65046;DHT22;54657;52.022;5.534;2022-09-24T17:01:59;15.20;83.00
65046;DHT22;54657;52.022;5.534;2022-09-24T17:04:25;15.30;82.90
65046;DHT22;54657;52.022;5.534;2022-09-24T17:06:55;15.30;83.00
65046;DHT22;54657;52.022;5.534;2022-09-24T17:09:21;15.30;82.80
65046;DHT22;54657;52.022;5.534;2022-09-24T17:12:06;15.30;83.00
65046;DHT22;54657;52.022;5.534;2022-09-24T17:14:32;15.30;82.80
65046;DHT22;54657;52.022;5.534;2022-09-24T17:16:57;15.30;82.80
65046;DHT22;54657;52.022;5.534;2022-09-24T17:19:23;15.30;82.80
65046;DHT22;54657;52.022;5.534;2022-09-24T17:21:49;15.40;82.50
65046;DHT22;54657;52.022;5.534;2022-09-24T17:24:15;15.30;82.40
65046;DHT22;54657;52.022;5.534;2022-09-24T17:26:41;15.40;82.70
65046;DHT22;54657;52.022;5.534;2022-09-24T17:29:06;15.50;82.50
65046;DHT22;54657;52.022;5.534;2022-09-24T17:31:32;15.50;82.20
65046;DHT22;54657;52.022;5.534;2022-09-24T17:34:00;15.50;82.00
65046;DHT22;54657;52.022;5.534;2022-09-24T17:36:28;15.50;82.20
65046;DHT22;54657;52.022;5.534;2022-09-24T17:38:54;15.50;81.90
65046;DHT22;54657;52.022;5.534;2022-09-24T17:41:21;15.40;82.20
65046;DHT22;54657;52.022;5.534;2022-09-24T17:43:48;15.50;82.30
65046;DHT22;54657;52.022;5.534;2022-09-24T17:46:16;15.50;82.20
65046;DHT22;54657;52.022;5.534;2022-09-24T17:48:44;15.40;82.20
65046;DHT22;54657;52.022;5.534;2022-09-24T17:51:16;15.40;82.50
65046;DHT22;54657;52.022;5.534;2022-09-24T17:53:43;15.40;82.50